LFGJ/DLE METAR and TAF weather

Enter ICAO airport designator
Station Type Date Time Source
LFGJ METAR 2020/07/06 03:00 UTC NOAA

LFGJ 060300Z AUTO 24005KT 9999 FEW026 BKN052 19/16 Q1017


Station Type Date Time Source
LFGJ Decoded METAR 2020/07/06 03:00 UTC NOAA

Dole Tavaux, France (LFGJ) 47-02-34N 005-26-06E
Jul 05, 2020 - 11:00 PM EDT / 2020.07.06 0300 UTC
Wind: from the WSW (240 degrees) at 6 MPH (5 KT):0
Visibility: greater than 7 mile(s):0
Sky conditions: mostly cloudy
Temperature: 66 F (19 C)
Dew Point: 60 F (16 C)
Relative Humidity: 82%
Pressure (altimeter): 30.03 in. Hg (1017 hPa)
ob: LFGJ 060300Z AUTO 24005KT 9999 FEW026 BKN052 19/16 Q1017
cycle: 3

Station Type Date Time Source
LFGJ TAF 2020/06/22 09:21 UTC NOAA

TAF LFGJ 220800Z 2209/2221 01008KT 9999 FEW035 BKN053
BECMG 2212/2215 CAVOK

Example: see airport list